createdAt,value
2023-10-06T00:04:39.723Z,15.30
2023-10-06T00:09:44.695Z,12.35
2023-10-06T00:14:49.850Z,11.02
2023-10-06T00:19:53.467Z,10.23
2023-10-06T00:25:01.133Z,8.80
2023-10-06T00:30:12.654Z,8.52
2023-10-06T00:35:18.174Z,11.52
2023-10-06T00:40:26.140Z,13.18
2023-10-06T00:45:31.501Z,9.25
2023-10-06T00:50:34.401Z,9.00
2023-10-06T00:55:36.647Z,11.93
2023-10-06T01:00:39.438Z,13.75
2023-10-06T01:05:45.985Z,104.78
2023-10-06T01:10:52.346Z,10.15
2023-10-06T01:15:57.569Z,10.45
2023-10-06T01:21:10.671Z,11.23
2023-10-06T01:26:14.193Z,10.10
2023-10-06T01:31:15.971Z,12.75
2023-10-06T01:36:23.125Z,9.80
2023-10-06T01:41:27.707Z,8.88
2023-10-06T01:46:30.226Z,8.35
2023-10-06T01:51:39.962Z,10.43
2023-10-06T02:01:46.020Z,25.25
2023-10-06T02:06:49.419Z,8.20
2023-10-06T02:11:51.055Z,9.50
2023-10-06T02:16:56.642Z,13.77
2023-10-06T02:21:58.427Z,10.18
2023-10-06T02:27:02.236Z,10.57
2023-10-06T02:32:10.149Z,8.35
2023-10-06T02:37:11.777Z,8.70
2023-10-06T02:42:15.725Z,9.35
2023-10-06T02:47:18.942Z,8.50
2023-10-06T02:52:23.836Z,12.77
2023-10-06T02:57:26.815Z,11.52
2023-10-06T03:02:29.403Z,11.38
2023-10-06T03:07:31.601Z,8.25
2023-10-06T03:12:33.378Z,9.80
2023-10-06T03:17:35.529Z,11.25
2023-10-06T03:22:39.353Z,10.75
2023-10-06T03:27:42.481Z,15.35
2023-10-06T03:32:53.297Z,12.13
2023-10-06T03:38:08.889Z,10.02
2023-10-06T03:43:14.160Z,10.15
2023-10-06T03:48:15.909Z,11.15
2023-10-06T03:53:18.806Z,9.10
2023-10-06T03:58:20.683Z,9.45
2023-10-06T04:03:22.881Z,9.73
2023-10-06T04:08:24.547Z,7.55
2023-10-06T04:13:27.291Z,6.65
2023-10-06T04:18:28.888Z,7.93
2023-10-06T04:23:31.296Z,8.60
2023-10-06T04:28:32.901Z,12.48
2023-10-06T04:33:34.683Z,10.95
2023-10-06T04:38:40.990Z,7.70
2023-10-06T04:43:45.804Z,6.72
2023-10-06T04:48:49.600Z,6.75
2023-10-06T04:53:51.357Z,7.95
2023-10-06T04:58:55.037Z,7.57
2023-10-06T05:03:56.874Z,11.07
2023-10-06T05:08:58.536Z,16.30
2023-10-06T05:14:00.243Z,22.25
2023-10-06T05:19:04.517Z,32.33
2023-10-06T05:24:09.761Z,34.90
2023-10-06T05:29:15.597Z,57.80
2023-10-06T05:34:18.775Z,44.70
2023-10-06T05:39:20.486Z,49.28
2023-10-06T05:44:22.679Z,54.22
2023-10-06T05:49:24.334Z,56.45
2023-10-06T05:54:28.064Z,56.60
2023-10-06T05:59:30.579Z,67.03
2023-10-06T06:04:32.317Z,46.72
2023-10-06T06:09:34.930Z,52.00
2023-10-06T06:14:36.705Z,60.38
2023-10-06T06:19:40.162Z,44.42
2023-10-06T06:24:42.131Z,21.05
2023-10-06T06:29:47.450Z,20.77
2023-10-06T06:34:49.257Z,28.30
2023-10-06T06:39:50.903Z,29.92
2023-10-06T06:44:53.208Z,47.15
2023-10-06T06:49:56.144Z,49.67
2023-10-06T06:54:57.793Z,48.97
2023-10-06T07:00:09.861Z,58.97
2023-10-06T07:05:12.895Z,26.40
2023-10-06T07:10:23.871Z,47.90
2023-10-06T07:15:29.163Z,26.60
2023-10-06T07:20:31.767Z,20.95
2023-10-06T07:25:33.507Z,15.43
2023-10-06T07:30:45.218Z,14.48
2023-10-06T07:36:45.385Z,14.18
2023-10-06T07:48:47.215Z,14.27
2023-10-06T08:22:00.584Z,11.18
2023-10-06T08:27:03.603Z,9.43
2023-10-06T08:32:07.730Z,14.50
2023-10-06T08:37:12.381Z,12.77
2023-10-06T08:42:18.869Z,11.63
2023-10-06T08:47:27.920Z,10.73
2023-10-06T08:52:34.053Z,9.20
2023-10-06T08:57:35.855Z,10.43
2023-10-06T09:02:37.522Z,9.95
2023-10-06T09:07:39.354Z,9.98
2023-10-06T09:12:43.658Z,9.20
2023-10-06T09:17:46.523Z,8.50
2023-10-06T09:22:50.802Z,9.68
2023-10-06T09:28:04.611Z,8.10
2023-10-06T09:33:06.397Z,10.07
2023-10-06T09:38:17.319Z,11.70
2023-10-06T09:43:22.563Z,13.10
2023-10-06T09:48:27.326Z,10.88
2023-10-06T09:53:31.621Z,10.07
2023-10-06T09:58:34.629Z,10.35
2023-10-06T10:03:38.884Z,8.32
2023-10-06T10:08:42.592Z,9.13
2023-10-06T10:14:27.980Z,11.10
2023-10-06T10:19:30.122Z,9.02
2023-10-06T10:25:09.825Z,8.95
2023-10-06T10:29:57.411Z,11.15
2023-10-06T10:35:18.150Z,10.82
2023-10-06T10:40:49.919Z,10.23
2023-10-06T10:45:54.864Z,9.68
2023-10-06T10:51:12.075Z,8.73
2023-10-06T10:56:27.827Z,7.63
2023-10-06T11:01:52.656Z,7.32
2023-10-06T11:06:59.343Z,7.40
2023-10-06T11:12:24.764Z,9.15
2023-10-06T11:17:33.725Z,8.82
2023-10-06T11:22:35.655Z,11.30
2023-10-06T11:27:39.329Z,8.27
2023-10-06T11:32:44.687Z,12.43
2023-10-06T11:37:46.393Z,7.00
2023-10-06T11:42:48.061Z,7.43
2023-10-06T11:47:50.233Z,9.13
2023-10-06T11:52:52.893Z,11.75
2023-10-06T11:57:55.454Z,7.85
2023-10-06T12:02:57.281Z,10.35
2023-10-06T12:08:06.585Z,10.07
2023-10-06T12:13:11.624Z,7.35
2023-10-06T12:18:15.315Z,8.30
2023-10-06T12:23:17.079Z,10.20
2023-10-06T12:28:18.908Z,8.52
2023-10-06T12:33:20.650Z,8.73
2023-10-06T12:38:23.992Z,9.68
2023-10-06T12:43:25.968Z,7.80
2023-10-06T12:48:27.529Z,11.13
2023-10-06T12:53:29.664Z,8.98
2023-10-06T12:58:31.683Z,8.90
2023-10-06T13:03:34.358Z,7.68
2023-10-06T13:09:12.710Z,10.38
2023-10-06T13:14:19.802Z,7.68
2023-10-06T13:19:21.713Z,8.77
2023-10-06T13:24:24.914Z,12.38
2023-10-06T13:29:26.704Z,7.03
2023-10-06T13:34:28.305Z,12.25
2023-10-06T13:39:29.908Z,6.60
2023-10-06T13:44:32.604Z,11.70
2023-10-06T13:49:34.286Z,8.98
2023-10-06T13:54:36.112Z,7.28
2023-10-06T13:59:43.500Z,7.03
2023-10-06T14:04:45.139Z,8.75
2023-10-06T14:09:46.749Z,11.50
2023-10-06T14:14:48.411Z,8.93
2023-10-06T14:19:51.295Z,8.52
2023-10-06T14:24:54.292Z,9.60
2023-10-06T14:29:55.986Z,13.10
2023-10-06T14:35:12.970Z,11.32
2023-10-06T14:40:33.219Z,14.80
2023-10-06T14:45:53.847Z,16.65
2023-10-06T14:50:59.493Z,16.45
2023-10-06T14:56:02.073Z,12.85
2023-10-06T15:01:04.092Z,16.90
2023-10-06T15:06:06.162Z,16.13
2023-10-06T15:11:13.100Z,18.20
2023-10-06T15:16:20.188Z,20.95
2023-10-06T15:21:24.816Z,19.50
2023-10-06T15:26:27.167Z,22.38
2023-10-06T15:31:29.885Z,19.70
2023-10-06T15:36:31.810Z,18.35
2023-10-06T15:41:33.475Z,20.75
2023-10-06T15:46:35.685Z,16.02
2023-10-06T15:51:37.296Z,16.38
2023-10-06T15:56:42.139Z,19.45
2023-10-06T16:01:45.955Z,15.15
2023-10-06T16:06:48.762Z,13.65
2023-10-06T16:11:50.563Z,12.82
2023-10-06T16:16:53.496Z,12.15
2023-10-06T16:21:56.421Z,16.15
2023-10-06T16:26:58.877Z,14.80
2023-10-06T16:32:01.338Z,14.90
2023-10-06T16:37:04.143Z,13.55
2023-10-06T16:42:06.713Z,15.45
2023-10-06T16:47:08.415Z,13.70
2023-10-06T16:52:10.282Z,13.63
2023-10-06T16:57:11.850Z,18.35
2023-10-06T17:02:14.352Z,15.65
2023-10-06T17:07:16.000Z,17.27
2023-10-06T17:12:17.870Z,14.90
2023-10-06T17:17:26.489Z,16.83
2023-10-06T17:22:28.147Z,17.40
2023-10-06T17:27:29.690Z,14.48
2023-10-06T17:32:34.281Z,12.77
2023-10-06T17:37:36.446Z,15.07
2023-10-06T17:42:38.683Z,14.48
2023-10-06T17:47:40.408Z,15.55
2023-10-06T17:52:42.159Z,19.38
2023-10-06T17:57:43.779Z,17.17
2023-10-06T18:02:45.512Z,16.10
2023-10-06T18:07:47.209Z,18.73
2023-10-06T18:12:49.869Z,16.30
2023-10-06T18:17:52.731Z,13.75
2023-10-06T18:22:54.830Z,21.75
2023-10-06T18:27:56.548Z,37.67
2023-10-06T18:32:58.328Z,34.65
2023-10-06T18:37:59.896Z,26.25
2023-10-06T18:43:01.749Z,24.08
2023-10-06T18:48:05.467Z,24.35
2023-10-06T18:53:07.622Z,22.70
2023-10-06T18:58:10.341Z,20.10
2023-10-06T19:03:12.891Z,23.65
2023-10-06T19:08:15.914Z,16.85
2023-10-06T19:13:18.460Z,18.15
2023-10-06T19:18:20.052Z,19.63
2023-10-06T19:23:21.607Z,20.25
2023-10-06T19:28:24.429Z,20.30
2023-10-06T19:33:26.638Z,20.98
2023-10-06T19:38:28.616Z,17.55
2023-10-06T19:43:32.198Z,18.48
2023-10-06T19:48:34.274Z,23.17
2023-10-06T19:53:36.639Z,26.95
2023-10-06T19:58:38.247Z,21.58
2023-10-06T20:03:44.108Z,24.33
2023-10-06T20:08:47.937Z,20.33
2023-10-06T20:13:50.732Z,24.42
2023-10-06T20:18:52.455Z,23.15
2023-10-06T20:23:54.193Z,23.33
2023-10-06T20:28:56.339Z,20.35
2023-10-06T20:33:57.975Z,21.70
2023-10-06T20:38:59.942Z,22.70
2023-10-06T20:44:08.876Z,19.58
2023-10-06T20:49:14.876Z,16.33
2023-10-06T20:54:17.616Z,16.27
2023-10-06T20:59:19.176Z,18.88
2023-10-06T21:04:20.778Z,17.08
2023-10-06T21:09:22.620Z,18.90
2023-10-06T21:14:24.223Z,18.85
2023-10-06T21:19:25.877Z,22.77
2023-10-06T21:24:27.578Z,19.55
2023-10-06T21:29:30.116Z,24.08
2023-10-06T21:34:31.735Z,20.92
2023-10-06T21:39:33.425Z,17.73
2023-10-06T21:44:36.318Z,14.45
2023-10-06T21:49:40.325Z,16.73
2023-10-06T21:54:43.685Z,23.25
2023-10-06T21:59:45.518Z,20.00
2023-10-06T22:04:47.176Z,15.55
2023-10-06T22:09:48.809Z,25.92
2023-10-06T22:14:50.410Z,22.42
2023-10-06T22:19:52.042Z,24.13
2023-10-06T22:24:54.280Z,21.98
2023-10-06T22:29:59.054Z,21.27
2023-10-06T22:35:00.880Z,23.52
2023-10-06T22:40:02.555Z,25.10
2023-10-06T22:45:04.775Z,23.17
2023-10-06T22:50:07.104Z,20.48
2023-10-06T22:55:10.031Z,21.15
2023-10-06T23:00:17.865Z,22.25
2023-10-06T23:05:19.640Z,23.25
2023-10-06T23:10:23.927Z,23.90
2023-10-06T23:15:32.801Z,23.20
2023-10-06T23:20:42.992Z,19.93
2023-10-06T23:25:56.588Z,21.05
2023-10-06T23:30:59.327Z,17.60
2023-10-06T23:36:01.442Z,17.38
2023-10-06T23:41:08.910Z,22.13
2023-10-06T23:46:16.297Z,15.13
2023-10-06T23:51:20.071Z,20.55
2023-10-06T23:56:25.714Z,20.05
